METAR

METAR RPLL (MNL) – NINOY AQUINO INTERNATIONAL AIRPORT(MANILA INTERNATIONAL AIRPORT)
RPLL 280900Z 08013KT 9999 SCT025 BKN100 27/18 Q1009 NOSIG RMK A2980
RPLL 280800Z 07010KT 030V090 9999 SCT025 BKN100 28/18 Q1008 NOSIG RMK A2977
RPLL 280700Z 08012KT ET9999 SCT025 BKN100 29/18 Q1008 NOSIG RMK A2977
RPLL 280600Z 09010KT 060V120 9999 SCT025 BKN100 30/18 Q1008 NOSIG RMK A2977
RPLL 280500Z 09012KT 9999 SCT023 BKN100 28/19 Q1009 NOSIG RMK A2980
RPLL 280400Z 10008KT 060V150 9999 SCT025 BKN100 29/19 Q1010 NOSIG RMK A2983
RPLL 280300Z VRB02KT 9999 SCT023 BKN100 27/20 Q1011 NOSIG RMK A2985
RPLL 280200Z 25004KT 210V290 9999 SCT023 BKN100 26/20 Q1012 NOSIG RMK A2988
RPLL 280100Z 23003KT 160V280 9999 FEW025 SCT100 26/21 Q1012 NOSIG RMK A2988
RPLL 280000Z 22004KT 9999 SCT025 BKN100 25/21 Q1010 NOSIG RMK A2983
RPLL 272300Z 20003KT 170V240 9000 -RA SCT025 BKN090 24/21 Q1011 NOSIG RMK A2985
RPLL 272200Z VRB01KT 9000 -RA SCT025 BKN080 25/20 Q1010 NOSIG RMK A2983
RPLL 272100Z VRB02KT 9999 FEW025 BKN090 25/19 Q1009 NOSIG RMK A2980
RPLL 272000Z VRB01KT 9999 FEW025 BKN080 25/20 Q1009 NOSIG RMK A2980
RPLL 271800Z VRB02KT 9999 VCSH FEW025 BKN080 25/21 Q1009 NOSIG RMK A2980 VCSH NE
RPLL 271700Z 04004KT 9999 FEW022 SCT025 OVC080 25/21 Q1010 NOSIG RMK A2983
RPLL 271600Z 36005KT 330V040 9999 SCT025 BKN080 25/21 Q1010 NOSIG RMK A2983
RPLL 271400Z VRB02KT 9999 SCT025 BKN080 26/20 Q1010 NOSIG RMK A2983
RPLL 271300Z VRB02KT 9999 SCT025 BKN080 26/20 Q1010 NOSIG RMK A2983
RPLL 271200Z 04005KT 330V110 9999 SCT025 BKN100 26/20 Q1010 NOSIG RMK A2983
RPLL 271100Z 04004KT 020V080 9999 FEW023 BKN100 26/21 Q1009 NOSIG RMK A2980
RPLL 271000Z VRB03KT 9999 SCT023 BKN100 26/21 Q1009 NOSIG RMK A2980
RPLL 270900Z 07005KT 020V140 8000 -RA SCT023 BKN090 27/20 Q1009 NOSIG RMK A2980
RPLL 270800Z 03007KT 9999 SCT023 BKN100 28/20 Q1008 NOSIG RMK A2977
RPLL 270700Z 02009KT 9999 SCT023 BKN100 28/20 Q1008 NOSIG RMK A2977
RPLL 270600Z 01009KT 330V120 9999 SCT023 BKN100 28/20 Q1008 NOSIG RMK A2977
RPLL 270500Z 36007KT 320V050 9000 SCT023 OVC100 28/21 Q1009 NOSIG RMK A2980
RPLL 270400Z 30006KT 260V340 8000 -SHRA SCT023 OVC090 28/21 Q1010 NOSIG RMK A2983
RPLL 270300Z 27007KT 250V310 9000 SCT025 OVC090 28/21 Q1011 NOSIG RMK A2985
RPLL 270200Z 26006KT 220V300 9999 SCT25 BKN100 27/21 Q1012 NOSIG RMK A2988
RPLL 270100Z VRB03KT 9999 SCT023 BKN100 27/20 Q1012 NOSIG RMK A2988
RPLL 270000Z 04003KT 350V080 9999 FEW025 BKN100 26/20 Q1011 NOSIG RMK A2985
RPLL 262300Z 35006KT 330V040 9999 FEW025 BKN100 25/20 Q1010 NOSIG RMK A2983
RPLL 262200Z 36004KT 300V060 9999 FEW025 BKN100 25/20 Q1010 NOSIG RMK A2983
RPLL 262100Z 35005KT 310V020 9999 FEW025 BKN100 25/20 Q1009 NOSIG RMK A2980
RPLL 262000Z 33004KT 270V350 9999 FEW025 BKN100 25/20 Q1010 NOSIG RMK A2983
RPLL 261800Z 22003KT 9999 FEW025 BKN100 25/21 Q1010 NOSIG RMK A2983
RPLL 261800Z 22003KT 9999 FEW025 BKN100 25/21 Q1010 NOSIG RMK A2983
RPLL 261800Z 22003KT 9999 FEW025 BKN100 25/21 Q1010 NOSIG RMK A2983
RPLL 261800Z 22003KT 9999 FEW025 BKN100 25/21 Q1010 NOSIG RMK A2983
RPLL 261800Z 22003KT 9999 FEW025 BKN100 25/21 Q1010 NOSIG RMK A2983

RPVM (CEB) – MACTAN-CEBU INTERNATIONAL AIRPORT
RPVM 280900Z 34010KT 9999 FEW018CB BKN100 29/24 Q1007 NOSIG RMKA2974 CB N-NE
RPVM 280800Z 34009KT 310V010 999 FEW018CB BKN100 30/24 Q1006 NOSIG RMK A2971
RPVM 280700Z 04011KT 9999 FEW020 SCT100 31/24 Q1006 NOSIG RMK A2971
RPVM 280600Z 04013KT 9999 FEW020 BKN100 29/25 Q1006 NOSIG RMK A2971
RPVM 280500Z 04014KT 9999 FEW020 BKN100 29/25 Q1007 NOSIG RMK A2974
RPVM 280400Z 03013KT 9999 FEW020 BKN100 29/24 Q1008 NOSIG RMK A2977
RPVM 280300Z 03015KT 9999 FEW020 SCT100 BKN300 30/25 Q1009 NOSIG RMK A2980
RPVM 280200Z 03014KT 9999 FEW020 SCT100 BKN300 29/25 Q1010 NOSIG RMK A2983
RPVM 280100Z 03011KT 9999 FEW020 BKN100 28/24 Q1010 NOSIG RMK A2983
RPVM 280000Z 02009KT 9999 FEW020 SCT100 BKN300 27/24 Q1010 NOSIG RMK A2983
RPVM 272300Z 03007KT 9999 FEW020 BKN100 26/24 Q1009 NOSIG RMK A2980
RPVM 272200Z 01007KT 9999 FEW020 BKN100 26/24 Q1008 NOSIG RMK A2977
RPVM 272100Z 01004KT 9999 FEW020 SCT300 26/24 Q1008 NOSIG RMK A2977
RPVM 272000Z 03003KT 9999 FEW020 SCT300 26/24 Q1007 NOSIG RMK A2974
RPVM 271800Z 36006KT 9999 FEW020 SCT300 26/24 Q1007 NOSIG RMK A2974
RPVM 271700Z 01008KT 9999 FEW020 BKN100 26/24 Q1008 NOSIG RMK A2977
RPVM 271600Z 01007KT 9999 FEW020 SCT300 26/24 Q1009 NOSIG RMK A2980
RPVM 271400Z 01008KT 9999 FEW020 SCT100 26/25 Q1009 NOSIG RMK A2980
RPVM 271300Z 02012KT 9999 FEW020 SCT100 27/25 Q1009 NOSIG RMK A2980
RPVM 271200Z 01009KT 9999 FEW020 BKN100 27/25 Q1009 NOSIG RMK A2980
RPVM 271100Z 03010KT 9999 FEW020 BKN100 28/25 Q1009 NOSIG RMK A2980
RPVM 271000Z 02007KT 350V070 9999 FEW020 SCT300 BKN250 28/25 Q1008 NOSIG RMK A2977
RPVM 270900Z 03009KT 9999 FEW018CB BKN300 28/25 Q1007 NOSIG RMK A2974 CB SSW
RPVM 270800Z 04008KT 9999 FEW018CB BKN300 29/24 Q1007 NOSIG RMK A2974 CB S
RPVM 270700Z 04007KT 9999 FEW020 SCT100 BKN300 29/24 Q1007 NOSIG RMK A2974
RPVM 270500Z 03005KT 360V060 9999 FEW020 BKN100 28/25 Q1008 NOSIG RMK A2977
RPVM 270400Z 04006KT 9999 FEW020 BKN100 28/25 Q1009 NOSIG RMK A2980
RPVM 270300Z 04006KT 9999 FEW020 BKN100 28/24 Q1010 NOSIG RMK A2983
RPVM 270200Z 02008KT 9999 FEW020 BKN100 27/24 Q1010 NOSIG RMK A2983
RPVM 270100Z 02009KT 9999 FEW020 BKN100 27/23 Q1011 NOSIG RMK A2988
RPVM 270000Z 01008KT 9999 FEW020 BKN100 27/24 Q1011 NOSIG RMK A2985
RPVM 262300Z 35006KT 9999 FEW020 OVC100 25/24 Q1010 NOSIG RMK A2983
RPVM 262200Z 01007KT 9999 FEW020 BKN100 26/24 Q1010 NOSIG RMK A2983
RPVM 262100Z 02009KT 9999 FEW020 SCT100 26/24 Q1009 NOSIG RMK A2980
RPVM 262000Z 01008KT 9999 FEW020 BKN100 26/24 Q1008 NOSIG RMK A2977
RPVM 261800Z 01007KT 9999 FEW020 SCT100 26/24 Q1008 NOSIG RMK A2977
RPVM 261800Z 01007KT 9999 FEW020 SCT100 26/24 Q1008 NOSIG RMK A2977

RPLC (CRK) – CLARK INTERNATIONAL AIRPORT
RPLC 280900Z 09006KT 9999 SCT020 BKN100 27/19 Q1011 NOSIG RMK A2985
RPLC 280800Z 02006KT 9999 SCT020 OVC100 28/18 Q1010 NOSIG RMK A2983
RPLC 280700Z 14006KT 9999 SCT020 BKN100 29/19 Q1010 NOSIG RMK A2983
RPLC 280600Z 04008KT 9999 SCT020 BKN100 29/20 Q1010 NOSIG RMK A2983
RPLC 280500Z 04008KT 9999 SCT020 BKN100 30/19 Q1010 NOSIG RMK A2983
RPLC 280400Z 36006KT 9999 SCT020 BKN100 30/19 Q1011 NOSIG RMK A2985
RPLC 280300Z 04010KT 9999 SCT020 BKN300 29/19 Q1012 NOSIG RMK A2988
RPLC 280200Z 36006KT 9999 SCT020 BKN100 27/18 Q1013 NOSIG RMK A2991
RPLC 280100Z 32004KT 9999 SCT020 BKN100 26/18 Q1013 NOSIG RMK A2991
RPLC 280000Z 32004KT 9999 SCT020 OVC100 28/18 Q1013 NOSIG RMK A2991
RPLC 272300Z 29004KT 9999 SCT020 OVC100 25/18 Q1012 NOSIG RMK A2988
RPLC 272200Z 27002KT 9999 SCT020 OVC100 25/17 Q1011 NOSIG RMK A2985
RPLC 272100Z 34002KT 9999 FEW020 OVC100 23/17 Q1011 NOSIG RMK A2985
RPLC 272000Z 36004KT 9999 SCT020 OVC100 23/17 Q1010 NOSIG RMK A2983
RPLC 271800Z 36002KT 9999 SCT020 OVC100 23/18 Q1010 NOSIG RMK A2983
RPLC 271700Z 36002KT 9999 SCT020 OVC100 24/19 Q1011 NOSIG RMK A2985
RPLC 271400Z 36004KT 9999 FEW020 BKN300 24/20 Q1012 NOSIG RMK A2988
RPLC 271300Z 36004KT 9999 FEW020 BKN300 24/20 Q1012 NOSIG RMK A2988
RPLC 271200Z 36004KT 9999 SCT020 BKN100 25/20 Q1011 NOSIG RMK A2985
RPLC 271100Z 34004KT 9999 SCT020 BKN100 26/20 Q1011 NOSIG RMK A2985
RPLC 271000Z 34004KT 9999 SCT020 OVC100 27/21 Q1011 NOSIG RMKA 2985
RPLC 270900Z 36004KT 9999 SCT020 OVC100 28/20 Q1010 NOSIG RMK A2983
RPLC 270800Z 35004KT 9999 SCT020 OVC100 28/20 Q1010 NOSIG RMK A2983
RPLC 270700Z 36006KT 9999 SCT020 OVC100 28/20 Q1010 NOSIG RMK A2983
RPLC 270500Z 02004KT 9999 SCT020 OVC100 29/20 Q1011 NOSIG RMK A2985
RPLC 270400Z 36008KT 9999 SCT020 OVC100 29/20 Q1012 NOSIG RMK A2988
RPLC 270300Z 36008KT 9999 SCT020 BKN100 28/19 Q1013 NOSIG RMK A2991
RPLC 270100Z 36004KT 9999 FEW020 SCT100 27/19 Q1013 NOSIG RMK A2991
RPLC 270000Z 36004KT 9999 SCT020 BKN300 25/19 Q1013 NOSIG RMK A2991
RPLC 262300Z 34004KT 9999 SCT020 BKN300 23/18 Q1012 NOSIG RMK A2988
RPLC 262200Z 34004KT 9999 FEW020 SCT100 23/18 Q1011 NOSIG RMK A2985
RPLC 262100Z 35004KT 9999 FEW020 BKN100 24/18 Q1011 NOSIG RMK A2985
RPLC 262000Z 35002KT 9999 FEW020 SCT100 23/18 Q1011 NOSIG RMK A2985
RPLC 261800Z 32002KT 9999 FEW020 BKN100 23/19 Q1012 NOSIG RMK A2988

RPLB (SFS) – SUBIC BAY INTERNATIONAL AIRPORT
RPLB 280900Z 08015KT 9999 FEW020 BKN080 28/19 Q1010 NOSIG RMK A2983
RPLB 280800Z 07016KT 9999 FEW020 BKN080 29/18 Q1009 NOSIG RMK A2980
RPLB 280700Z 07014KT 9999 SCT020 BKN080 30/19 Q1009 NOSIG RMK A2980
RPLB 280600Z 07015KT 9999 FEW020 BN080 30/17 Q1009 NOSIG RMK A2980
RPLB 280500Z 07015KT 020V090 9999 FEW020 BKN080 30/19 Q1009 NOSIG RMK A2980
RPLB 280400Z 06015KT 030V090 9999 FEW020 BKN080 29/18 Q1010 NOSIG RMK A2983
RPLB 280200Z 06014KT 020V080 9999 FEW020 BKN080 28/18 Q1012 NOSIG RMK A2988
RPLB 280100Z 02007KT 9999 FEW020 BKN080 NOSIG RMK A2988
RPLB 280000Z 05006KT 010V070 9999 FEW020 BKN080 24/19 Q1012 NOSIG RMK A2988
RPLB 272300Z 06004KT 9999 FEW020 BKN080 23/18 Q1012 NOSIG RMK A2988
RPLB 272200Z 05007KT 010V080 9999 FEW020 BKN080 24/18 Q1011 NOSIG RMK A2985
RPLB 272100Z 08006KT 9999 FEW020 BKN080 23/18 Q1010 NOSIG RMK A2983
RPLB 272000Z 09007KT 9999 FEW020 BKN080 24/18 Q1010 NOSIG RMK A2983
RPLB 271800Z 07007KT 9999 FEW020 BKN080 25/19 Q1010 NOSIG RMK A2983
RPLB 271700Z 06008KT 9999 FEW020 BKN080 25/20 Q1010 NOSIG RMK A2983
RPLB 271600Z 07009KT 9999 FEW020 BKN080 25/21 Q1011 NOSIG RMK A2985
RPLB 271400Z 07010KT 9999 FEW020 BKN080 25/21 Q1011 NOSIG RMK A2985
RPLB 271300Z 07008KT 9999 FEW020 BKN080 25/21 Q1011 NOSIG RMK A2985
RPLB 271200Z 08011KT 9999 FEW020 BKN080 26/21 Q1011 NOSIG RMK A2985
RPLB 271100Z 06009KT 9999 FEW020 BKN080 26/20 Q1010 NOSIG RMK A2983
RPLB 270900Z 29003KT 260V320 9999 FEW020 BKN080 27/21 Q1010 NOSIG RMK A2983
RPLB 270800Z 32004KT 9999 FEW020 BKN080 27/21 Q1009 NOSIG RMK A2980
RPLB 270700Z 07012KT 9999 VCSH FEW018 BKN080 28/19 Q1009 RMK A2980 VCSH N
RPLB 270500Z 09010KT 060V120 9999 FEW020 BKN080 29/19 Q1010 NOSIG RMK A2983
RPLB 270400Z VRB03KT 9999 FEW020 BKN080 31/19 Q1011 NOSIG RMK A2985
RPLB 270300Z 04005KT 9999 FEW020 BKN080 28/19 Q1012 NOSIG RMK A2988
RPLB 270200Z 07010KT 9999 FEW020 SCT080 BKN300 27/18 Q1013 NOSIG RMK A2991 u0000u0000u0000u0000u0000u0000u0000u0000
RPLB 270100Z 04005KT 360V070 9999 FEW020 SCT080 BKN300 26/19 Q1013 NOSIG RMK A2991
RPLB 270000Z VRB02KT 9999 FEW020 SCT080 BKN300 25/19 Q1012 NOSIG RMK A2988
RPLB 262300Z 02005KT 350V060 9999 FEW020 9999 FEW020 BKN080 24/19 Q1011 NOSIG RMK A2985
RPLB 262200Z 03004KT 350V060 9999 FEW020 BKN080 24/19 Q1011 NOSIG RMK A2985
RPLB 262100Z 04004KT 010V070 9999 FEW020 BKN080 24/19 Q1011 NOSIG RMK A2985
RPLB 262000Z 05004KT 360V080 9999 FEW020 BKN080 24/19 Q1011 NOSIG RMK A2985
RPLB 261800Z 06006KT 9999 FEW020 SCT300 24/19 Q1011 NOSIG RMK A2985

RPLI (LAO) – LAOAG INTERNATIONAL AIRPORT
RPLI 280900Z 02016KT 9999 FEW018 24/16 Q1010 NOSIG RMK A2983
RPLI 280800Z 02018KT 9999 FEW018 SCT290 25/16 Q1010 NOSIG RMK A2983
RPLI 280700Z 02019KT 350V050 9999 FEW018 SCT290 26/16 Q1010 NOSIG RMK A2983
RPLI 280600Z 02019KT 9999 FEW018 SCT290 27/16 Q1010 NOSIG RMK A2983
RPLI 280500Z 02017G29KT 9999 FEW018 26/16 Q1011 NOSIG Q1011 NOSIG RMK A2985
RPLI 280400Z 03019KT 9999 FEW018 27/16 Q1012 NOSIG RMK A2988
RPLI 280300Z 02019KT 9999 FEW018 26/16 Q1013 NOSIG RMK A2991
RPLI 280200Z 02019KT 9999 FEW018 26/16 Q1014 NOSIG RMK A2994
RPLI 280100Z 02017KT 9999 FEW018 24/16 Q1014 NOSIG RMK A2994
RPLI 280000Z 01015KT 9999 FEW018 23/16 Q1014 NOSIG RMK A2994
RPLI 272300Z 01015KT 9999 FEW018 SCT100 22/16 Q1013 NOSIG RMK A2991
RPLI 272200Z 01014KT 9999 FEW018 BKN100 22/16 Q1012 NOSIG RMK A2988
RPLI 272100Z 01013KT 9999 FEW018 22/16 Q1011 NOSIG RMK A2985
RPLI 271800Z 01014KT 9999 FEW018 23/17 Q1011 NOSIG RMK A2985
RPLI 271200Z 02013KT 9999 FEW018 SCT290 23/18 Q1013 NOSIG RMK A2991
RPLI 271100Z 02016KT 9999 FEW018 SCT290 24/17 Q1013 NOSIG RMK A2991
RPLI 270900Z 02019KT 9999 FEW018 BKN290 26/17 Q1011 NOSIG RMK A2985
RPLI 270800Z 01018KT 9999 FEW018 BKN290 26/16 Q1011 NOSIG RMK A2985
RPLI 270700Z 01019KT 9999 FEW018 BKN290 28/17 Q1011 NOSIG RMK A2985
RPLI 270500Z 03019KT 350V050 9999 FEW018 BKN280 26/17 Q1012 NOSIG RMK A2988
RPLI 270400Z 36016G27KT 9999 FEW018 BKN280 27/18 Q1013 NOSIG RMK A2991
RPLI 270300Z 01020G30KT 9999 FEW018 BKN280 26/18 Q1014 NOSIG RMK A2994
RPLI 270200Z 01020G31KT 9999 FEW018 BKN280 25/19 Q1015 NOSIG RMK A2997
RPLI 270100Z 01019G29KT 9999 FEW018 BKN280 26/21 Q1015 NOSIG RMK A2997
RPLI 270000Z 01015KT 8000 FEW018 BKN280 23/20 Q1015 NOSIG RMK A2997
RPLI 262200Z VRB02KT 9999 FEW018 BKN290 19/17 Q1013 NOSIG RMK A2991
RPLI 262100Z VRB01KT 9999 FEW018 19/18 Q1012 NOSIG RMK A2988
RPLI 261800Z VRB01KT 9999 FEW018 20/18 Q1012 NOSIG RMK A2988
RPLI 261800Z VRB01KT 9999 FEW018 20/18 Q1012 NOSIG RMK A2988

RPVP (PPS) – PUERTO PRINCESA INTERNATIONAL AIRPORT
RPVP 280900Z 06016KT 9999 FEW019 SCT080 28/24 Q1007 RMK A2974
RPVP 280800Z 06016KT 9999 FEW019 BKN080 29/24 Q1006 RMK A2971
RPVP 280700Z 06016G26KT 9999 FEW019 BKN080 29/24 Q1006 RMK A2971
RPVP 280600Z 06016KT 9999 FEW019 BKN080 29/24 Q1006 RMK A2971
RPVP 280500Z 06016KT 9999 FEW019 BKN080 29/24 Q1007 RMK A2974
RPVP 280400Z 06016KT 9999 FEW019 BKN080 29/24 Q1008 RMK A2977
RPVP 280300Z 06014G22KT 9999 FEW019 SCT080 29/24 Q1009 RMK A2980
RPVP 280200Z 06014KT 9999 FEW019 BKN080 28/19 BKN080 28/25 Q1009 RMK A2980
RPVP 280100Z 06014G22KT 9999 FEW019 BKN080 27/24 Q1009 RMK A2980
RPVP 280000Z 06004KT 9999 FEW019 OVC080 26/25 Q1009 RMK A2980
RPVP 272300Z 24004KT 9999 FEW019 OVC080 26/25 Q1008 RMK A2977
RPVP 272200Z 33004KT 9999 FEW019 SCT080 25/24 Q1007 RMK A2974
RPVP 272100Z 27004KT 9999 FEW019 SCT080 25/24 Q1006 RMK A2971
RPVP 271200Z 30004KT 9999 -RA FEW019 OVC080 26/24 Q1008 RMK A2977
RPVP 271100Z 33004KT 9999 -RA FEW019 OVC080 26/25 Q1007 RMK A2974
RPVP 271000Z 36004KT 9999 -SHRA FEW019 OVC080 26/25 Q1007 RMK A2974
RPVP 270900Z 36004KT 9999 SCT020 OVC100 28/20 Q1010 NOSIG RMK A2983
RPVP 270800Z 36004KT 9999 FEW019 OVC080 27/25 Q1006 RMK A2971
RPVP 270700Z 30004KT 9999 FEW019 OVC080 27/24 Q1006 RERA RMK A2971
RPVP 270500Z 36006KT 9999 -SHRA FEW019 OVC080 27/25 Q008 RMK A2977
RPVP 270400Z 36004KT 9999 FEW019 OVC080 26/24 Q1009 RMK A2980
RPVP 270300Z 36006KT 9999 FEW019 OVC080 26/24 Q1010 RMK A2983
RPVP 270200Z 36006KT 9999 FEW019 OVC080 26/24 Q1010 RMK A2983
RPVP 270100Z 30006KT 9999 -RA FEW019 OVC080 25/24 Q1010 RMK A2983
RPVP 270000Z 30004KT 9999 FEW019 OVC080 25/23 Q1010 RMK A2983
RPVP 262300Z 30004KT 9999 -RA FEW019 OVC080 24/23 Q1009 RMK A2980
RPVP 262200Z 36004KT 9999 RA FEW019 OVC080 24/23 Q1009 RMK A2980
RPVP 262100Z 36006KT 9999 -RA FEW019 OVC080 26/24 Q1009 RMK A2980
RPVP 261800Z 36006KT 9999 -RA FEW019 BKN080 26/24 Q1009 RMK A2980

RPVD (DGT) – SIBULAN AIRPORT (DUMAGUETE AIRPORT)
RPVD 280900Z 32008KT 9999 VCSH FEW014CB SCT015 29/25 Q1006 RESHRA Q1006 RESHRA RMK A2971 CB VCSH NE W NW
RPVD 280800Z 29010KT 9999 VCSH FEW014CB 30/25 Q1005 RMK A2968 CB VCSH NW E
RPVD 280700Z 32012KT 9999 VCSH FEW014CB SCT220 29/25 Q1005 RMKA2968 CB VCSH NE NW N
RPVD 280600Z 32010G18KT 9999 SCT015TCU 30/25 Q1006 RMK A2971 TCU NW N
RPVD 280500Z 32012KT 9999 SCT015TCU SCT220 29/26 Q1006 RMK A2971 TCU N NE
RPVD 280400Z 34012KT 9999 SCT024 29/25 Q1007 RMK A2974
RPVD 280300Z 34010KT 9999 FEW014CB SCT015 29/25 Q1008 RMK A2977 CB W
RPVD 280200Z 34010KT 9999 SCT015 28/25 Q1009 RMK A2980
RPVD 280100Z 29010KT 9999 SCT015 28/25 Q1009 RMK A2980
RPVD 280000Z 29010KT 9999 SCT024TCU 28/25 Q1009 RMK A2980 TCU W
RPVD 272100Z 29006KT 9999 FEW015 26/24 Q1006 RMK A2971
RPVD 271200Z 36006KT 9999 FEW015 SCT070 28/25 Q1008 RMK A2977
RPVD 270900Z 34008KT 9999 VCSH FEW014CB BKN220 29/25 Q1006 RMK A2971 CB VCSH S NW
RPVD 270800Z 34008KT 9999 VCSH FEW014CB SCT220 30/25 Q1005 RMK A2968 B NE NW VCSH NW
RPVD 270700Z 04008KT 9999 FEW024 SCT220 30/25 Q1005 RMK A2968
RPVD 270500Z 04008KT 9999 FEW014CB SCT220 30/24 Q1007 RMK A2974 CB NE
RPVD 270400Z 04010KT 9999 FEW024 SCT220 30/26 Q1008 RMK
RPVD 270300Z 04010KT 9999 SCT015 29/25 Q1009 RMK A2980
RPVD 270100Z 04010KT 9999 FEW024TCU SCT070 29/25 Q1010 RMK A2983 TCU SE N
RPVD 270000Z 04006KT 9999 FEW024 SCT070 28/25 Q1009 RMK A2980
RPVD 262200Z 00000KT 9999 SCT015TCU OVC070 26/24 Q1008 RMK A2977 TCU S
RPVD 262100Z 32004KT 9999 SCT015 OVC070 26/24 Q1007 RMK A2974

RPMR (GES) – GENERAL SANTOS INTERNATIONAL AIRPORT
RPMR 280900Z 14008KT 9999 FEW017CB BKN080 30/23 Q1005 RMK A2968 CB W NW
RPMR 280800Z 14008KT 9999 FEW017CB FEW018 BKN080 31/22 Q1004 RMK A2965 CB W
RPMR 280700Z 13009KT 090V150 9999 FEW017CB FEW018 BKN250 32/23 Q1004 RMK A2965 CB NW W
RPMR 280600Z 12006KT 020V180 9999 FEW017CB FEW018 BKN250 32/22 Q1004 RMK A2965 CB N-NW
RPMR 280500Z 07007KT 360V110 9999 SCT018 BKN250 32/22 Q1005 RMK A2968
RPMR 280400Z 05008KT 020V090 9999 SCT018 BKN250 32/21 Q1016 RMK A2971
RPMR 280300Z 04005KT 350V100 9999 SCT018 BKN250 31/23 Q1007 RMK A2974
RPMR 280200Z 01004KT 340V050 9999 SCT018 BKN250 30/23 Q1008 RMK A2977
RPMR 280100Z VRB02KT 9999 FEW018 BKN250 29/24 Q1009 RMK A2980
RPMR 280000Z VRB01KT 9999 FEW018 BKN080 26/23 Q1009 RMK A298
RPMR 270900Z 16008KT 9999 SCT017CB SCT080 BKN250 30/23 Q1006 RMK A2971 CB N NE SE
RPMR 270800Z 14008KT 100V170 9999 SCT017CB SCT080 BKN250 31/22 Q1005 RMK A2968 CB NE W SW SE
RPMR 270700Z 15006KT 110V180 9999 SCT017CB SCT080 31/21 Q1005 RMK A2968 CB N NW W SW SE
RPMR 270500Z 15008KT 9999 FEW017CB BKN080 32/22 Q1007 RMK A2974 CB NW
RPMR 270400Z 11006KT 070V150 9999 SCT018 BKN080 31/23 Q1007 RMK A2974
RPMR 270300Z VRB03KT 9999 FEW017TCU FEW018 BKN250 30/23 Q1009 RMK A2980 TCU SW NW
RPMR 270200Z VRB03KT 9999 FEW018 BKN080 30/22 Q1010 RMK A2983
RPMR 270100Z VRB02KT 9999 FEW018 BKN080 29/23 Q1010 RMK A2983
RPMR 270000Z VRB01KT 9999 FEW018 BKN080 27/23 Q1010 RMK A2983

RPMD (DVO) – FRANCISCO BANGOY INTERNATIONAL AIRPORT
RPMD 280900Z 21007KT 9999 FEW016 SCT090 BKN250 30/24 Q1005 RMK A2968
RPMD 280800Z 29003KT 260V330 9999 SCT016 BKN080 30/24 Q1004 RMK A2965 CB VCSH SW
RPMD 280600Z 03007KT 9999 FEW018 SCT090 BKN260 32/23 Q1004 RMK A2965
RPMD 280500Z 02006KT 330V070 9999 SCT018 32/24 Q1005 RMK A2968
RPMD 280400Z 04008KT 350V070 9999 SCT018 SCT260 32/25 Q1006 RMK A2971
RPMD 280300Z 02997KT 320V050 9999 SCT018 30/24 Q1007 RMK A2974
RPMD 280200Z 01007KT 340V040 9999 SCT018 29/24 Q1008 RMK A2977
RPMD 280100Z 36006KT 330V050 9999 SCT016 29/25 Q1008 RMK A2977
RPMD 280000Z 36005KT 330V040 9999 FEW015 SCT260 27/26 Q1009 RMK A2980
RPMD 272300Z 33003KT 280V360 9999 FEW016 BKN260 25/25 Q1008 RMK A2977
RPMD 272200Z VRB02KT 9999 FEW016 SCT090 BKN260 24/24 Q1007 RMK A2974
RPMD 272100Z 30002KT 9999 FEW016 SCT090 BKN260 25/25 Q1007 RMK A2974
RPMD 272000Z 01002KT 9999 FEW016 SCT090 SCT290 25/25 Q1006 RMK A2971
RPMD 271800Z VRB02KT 9999 FEW016 SCT090 BKN260 25/25 Q1006 RMK A2971
RPMD 271700Z 33002KT 9999 FEW016 BKN090 OVC260 25/25 Q1007 RMK A2974
RPMD 271600Z 02003KT 9999 FEW016 BKN090 BKN260 25/25 Q1008 RESHRA RMK A2977
RPMD 271400Z VRB02KT 7000 -RA SCT015 OVC080 26/26 Q1008 RMK A2977 u0000u0000u0000
RPMD 271300Z VRB01KT 9999 FEW016 BKN090 BKN260 26/26 Q1008 RMK A2977
RPMD 271200Z 06002KT 9999 FEW015CB BKN290 26/26 Q1008 RMK A2977 CB/OCNL LTG NW
RPMD 271100Z 02004KT 9999 FEW016 SCT090 27/24 Q1008 RMK A2977
RPMD 270900Z 04004KT 9999 FEW015 BKN090 BKN260 28/25 Q1006 RMK A2971 VCSH NE
RPMD 270800Z 15007KT 120V180 9999 FEW015 BKN090 BKN260 30/24 Q1005 RMK A2968 VCSH NE
RPMD 270700Z 15006KT 110V180 9999 FEW016 SCT090 BKN250 31/24 Q1005 RMK A2968
RPMD 270500Z 14006KT 090V200 9999 FEW016 SCT090 BKN250 31/24 Q1006 RMK A2971
RPMD 270400Z 15005KT 080V200 9999 SCT016 SCT090 BKN260 31/23 Q1007 RMK
RPMD 270300Z 06007KT 030V090 9999 FEW016 BKN260 30/25 Q1009 RMK A2980
RPMD 270200Z 06007KT 9999 SCT016 29/24 Q1009 RMK A2980 u0000u0000u0000u0000u0000u0000u0000u0000
RPMD 270100Z 03004KT 350V080 9999 FEW015 28/26 Q1010 RMK A2983
RPMD 270000Z 04003KT 010V070 9999 FEW015 SCT260 27/26 Q1010 RMK A2983
RPMD 262300Z VRB02KT 9999 FEW016 SCT090 BKN260 25/25 Q1009 RMK A2980
RPMD 262200Z VRB01KT 9999 VCSH FEW015 SCT090 BKN260 24/24 Q1009 RMK A2980 VCSH N/E/SE
RPMD 262100Z 32002KT 9999 FEW016 BKN260 25/25 Q1008 RMK A2977
RPMD 262000Z VRB02KT 9999 FEW016 BKN090 BKN260 25/25 Q1008 RMK A2977
RPMD 261900Z VRB02KT 9999 FEW016 SCT090 BKN260 25/25 Q1008 RMK A2977
RPMD 261800Z VRB01KT 9999 FEW016 BKN090 OVC260 25/25 Q1008 RMK A2977

RPMZ (ZAM) – ZAMBOANGA INTERNATIONAL AIRPORT
RPMZ 280900Z 27008KT 9999 FEW016CB FEW017 SCT300 29/25 Q1005 RMK A2968 CB NW NE
RPMZ 280800Z 27008KT 9999 FEW016CB BKN300 29/25 Q1005 RMK A2968 CB W NES
RPMZ 280700Z 27006KT 210V300 9999 FEW016CB SCT300 30/25 Q1005 RMK A2968 CB NW-NE S OHD
RPMZ 280600Z VRB04KT 9999 SCT016CB BKN090 30/26 Q1005 RMK A2968 CB NW-N S OHD
RPMZ 280500Z 27006KT 9999 SCT016CB BKN090 29/25 Q1006 RMK A2971 CB NW-E S-SW.OHD
RPMZ 280400Z VRB02KT 9999 SCT016CB BKN090 30/24 Q1007 RMK A2974 CB W-NE E SE S-SW OHD
RPMZ 280300Z 16006KT 080V230 9999 SCT016CB SCT090 SCT300 29/25 Q1008 RMK A2977 CB SE S W-N OHD
RPMZ 280200Z 11003KT 050V180 9999 SCT016CB BKN090 29/25 Q1008 RMK A2977 CB NW--SE OHD
RPMZ 280100Z 08006KT 050V110 9999 FEW016CB SCT300 29/25 Q1008 RMK A2977 CB NE-S OHD
RPMZ 280000Z 05003KT 9999 FEW016CB FEW017 BKN300 27/24 Q1008 RMK A2977 CB NE SW-W
RPMZ 272300Z VRB01KT 9999 FEW016CB BKN090 25/23 Q1007 RMK A2974 CB NE SE W
RPMZ 272200Z VRB02KT 9999 FEW016CB BKN090 25/23 Q1007 RMK A2974 CB NE/SE-S/SW-W
RPMZ 272100Z VRB02KT 9999 FEW016CB BKN090 25/24 Q1006 RMK A2971 CB NE-SE/OHD
RPMZ 271800Z 00000KT 9999 FEW017 BKN090 25/24 Q1006 RMK A2971
RPMZ 271200Z VRB01KT 9999 FEW017 BKN300 26/25 Q1007 RMK A2974
RPMZ 271000Z 27004KT 240V300 9999 FEW017 BKN300 27/25 Q1006 RMK A2971
RPMZ 270900Z 26007KT 9999 FEW016CB FEW017 SCT300 28/24 Q1006 RMK A2971 CB NW
RPMZ 270800Z 25004KT 170V290 9999 FEW017 SCT300 29/24 Q1006 RMK A2971
RPMZ 270700Z 23005KT 180V280 9999 FEW016CB FEW017 SCT300 29/25 Q1006 RMK A2971 CB NW
RPMZ 270600Z 26008KT 190V300 9999 SCT016CB SCT090 30/25 Q1006 RMK A2971 CB NW-NE SW
RPMZ 270500Z 18007KT 150V210 9999 FEW016CB FEW017 31/24 Q1007 RMK A2974 CB N S
RPMZ 270400Z 16005KT 080V240 9999 FEW016CB BKN090 31/25 Q1008 RMK A2977 CB NW NE
RPMZ 270300Z 16005KT 110V210 9999 FEW016CB BKN300 31/15 Q1009 RMK A2980 CB NW-N
RPMZ 270200Z 07005KT 040V120 9999 FEW017 BKN300 29/24 Q1009 RMK A2980
RPMZ 270100Z 10005KT 070V130 9999 FEW017 SCT090 BKN300 29/24 Q1010 RMK A2983
RPMZ 270000Z 09005KT 9999 FEW017 BKN300 27/25 Q1010 RMK A2983
RPMZ 262300Z VRB02KT 9999 FEW017 SCT090 BKN300 25/23 Q1009 RMK A2980
RPMZ 262200Z VRB01KT 9999 FEW017 SCT300 24/23 Q1008 RMK A2977
RPMZ 262100Z VRB01KT 9999 FEW017 SCT300 24/23 Q1007 RMK A2974
RPMZ 261800Z 00000KT 9999 FEW017 BKN300 24/24 Q1007 RMK A2974
RPMZ 261800Z 00000KT 9999 FEW017 BKN300 24/24 Q1007 RMK A2974